Time;durP1;ratioP1;P1;durP2;ratioP2;P2;SDS_P1;SDS_P2;PMS_P1;PMS_P2;Temp;Humidity;BMP_temperature;BMP_pressure;BME280_temperature;BME280_humidity;BME280_pressure;Samples;Min_cycle;Max_cycle;Signal;HPM_P1;HPM_P2
2022/08/17 00:02:23;;;;;;;6.70;5.95;;;17.90;99.90;;;;;;5037648;28;20041;-72
2022/08/17 00:04:54;;;;;;;7.97;5.45;;;17.90;99.90;;;;;;5041489;28;20037;-72
2022/08/17 00:07:26;;;;;;;6.65;6.03;;;17.80;99.90;;;;;;5024355;28;20046;-72
2022/08/17 00:09:58;;;;;;;6.65;5.38;;;17.70;99.90;;;;;;5011624;28;20572;-72
2022/08/17 00:12:25;;;;;;;6.80;5.93;;;17.70;99.90;;;;;;5040970;28;20036;-72
2022/08/17 00:14:56;;;;;;;6.15;5.65;;;17.70;99.90;;;;;;5024218;28;20072;-72
2022/08/17 00:17:28;;;;;;;7.20;5.50;;;17.60;99.90;;;;;;5017165;28;20050;-72
2022/08/17 00:19:55;;;;;;;6.45;5.85;;;17.60;99.90;;;;;;5039936;28;20045;-72
2022/08/17 00:22:26;;;;;;;6.88;6.18;;;17.60;99.90;;;;;;5043662;28;20513;-72
2022/08/17 00:24:58;;;;;;;8.50;6.60;;;17.50;99.90;;;;;;5026171;28;20052;-72
2022/08/17 00:27:30;;;;;;;7.18;5.90;;;17.40;99.90;;;;;;5040887;28;20471;-72
2022/08/17 00:30:04;;;;;;;6.78;6.07;;;17.40;99.90;;;;;;5027942;28;20037;-72
2022/08/17 00:32:44;;;;;;;6.95;6.32;;;17.40;99.90;;;;;;5027009;28;20407;-72
2022/08/17 00:35:22;;;;;;;6.88;6.28;;;17.40;99.90;;;;;;5029643;28;20033;-72
2022/08/17 00:37:54;;;;;;;6.90;6.20;;;17.40;99.90;;;;;;5045302;28;20051;-72
2022/08/17 00:40:26;;;;;;;7.22;6.03;;;17.30;99.90;;;;;;5030242;28;20051;-72
2022/08/17 00:43:12;;;;;;;7.32;6.20;;;17.30;99.90;;;;;;5015706;28;20063;-72
2022/08/17 00:45:44;;;;;;;6.82;6.20;;;17.30;99.90;;;;;;5048341;28;20059;-72
2022/08/17 00:48:16;;;;;;;7.05;6.45;;;17.30;99.90;;;;;;5033865;28;20063;-72
2022/08/17 00:51:05;;;;;;;7.40;6.20;;;17.20;99.90;;;;;;5029522;28;20471;-72
2022/08/17 00:53:42;;;;;;;6.72;6.03;;;17.10;99.90;;;;;;5041153;28;20051;-72
2022/08/17 00:56:21;;;;;;;9.18;6.80;;;17.10;99.90;;;;;;5043888;28;20384;-72
2022/08/17 00:58:54;;;;;;;6.70;6.10;;;17.00;99.90;;;;;;5020144;28;20051;-72
2022/08/17 01:01:25;;;;;;;7.50;6.32;;;16.90;99.90;;;;;;5025995;28;20049;-72
2022/08/17 01:03:59;;;;;;;6.25;5.65;;;16.90;99.90;;;;;;5048684;28;20041;-72
2022/08/17 01:06:31;;;;;;;6.55;5.95;;;16.90;99.90;;;;;;5031150;28;20418;-72
2022/08/17 01:09:03;;;;;;;10.20;6.83;;;17.00;99.90;;;;;;5016509;28;20041;-72
2022/08/17 01:11:39;;;;;;;7.45;6.68;;;17.10;99.90;;;;;;5014299;28;20041;-72
2022/08/17 01:14:11;;;;;;;6.63;5.45;;;17.00;99.90;;;;;;5031445;28;20044;-72
2022/08/17 01:16:43;;;;;;;7.10;6.40;;;17.00;99.90;;;;;;5028251;28;20126;-72
2022/08/17 01:19:24;;;;;;;6.55;5.82;;;17.00;99.90;;;;;;5047184;28;20056;-72
2022/08/17 01:22:09;;;;;;;6.18;5.65;;;17.00;99.90;;;;;;5020325;28;20044;-72
2022/08/17 01:24:44;;;;;;;7.47;6.70;;;17.10;99.90;;;;;;5039647;28;20038;-72
2022/08/17 01:27:17;;;;;;;7.60;6.57;;;17.10;99.90;;;;;;5029171;28;20127;-72
2022/08/17 01:29:56;;;;;;;9.18;7.97;;;17.10;99.90;;;;;;5014539;28;20644;-72
2022/08/17 01:32:29;;;;;;;9.50;8.50;;;17.00;99.90;;;;;;5035093;28;20044;-72
2022/08/17 01:35:01;;;;;;;7.63;6.93;;;17.00;99.90;;;;;;5041699;28;20063;-72
2022/08/17 01:37:36;;;;;;;7.97;7.18;;;17.00;99.90;;;;;;5022825;28;20049;-72
2022/08/17 01:40:34;;;;;;;8.20;7.47;;;17.00;99.90;;;;;;5020974;28;20054;-72
2022/08/17 01:43:11;;;;;;;11.10;10.05;;;17.00;99.90;;;;;;5004201;28;20073;-72
2022/08/17 01:45:45;;;;;;;11.30;10.30;;;17.00;99.90;;;;;;5030848;28;20068;-72
2022/08/17 01:48:21;;;;;;;11.82;10.63;;;16.90;99.90;;;;;;5028379;28;20072;-72
2022/08/17 01:50:52;;;;;;;11.30;10.05;;;16.80;99.90;;;;;;5031071;28;20132;-72
2022/08/17 01:53:33;;;;;;;13.60;11.52;;;16.90;99.90;;;;;;5041129;28;20470;-72
2022/08/17 01:56:14;;;;;;;12.45;10.25;;;16.90;99.90;;;;;;5015088;28;20051;-72
2022/08/17 01:58:46;;;;;;;12.00;10.90;;;16.90;99.90;;;;;;5027474;28;20142;-72
2022/08/17 02:01:25;;;;;;;10.93;9.82;;;16.90;99.90;;;;;;5036193;28;20052;-72
2022/08/17 02:03:57;;;;;;;9.88;8.98;;;16.80;99.90;;;;;;5024277;28;20045;-72
2022/08/17 02:06:31;;;;;;;9.38;8.38;;;16.70;99.90;;;;;;5040156;28;20041;-72
2022/08/17 02:09:04;;;;;;;8.32;7.53;;;16.50;99.90;;;;;;5026070;28;20045;-72
2022/08/17 02:11:36;;;;;;;9.00;8.20;;;16.40;99.90;;;;;;5062800;23;20044;-69
2022/08/17 02:14:10;;;;;;;9.25;8.35;;;16.40;99.90;;;;;;5005771;28;20050;-72
2022/08/17 02:16:42;;;;;;;11.07;8.60;;;16.30;99.90;;;;;;4991942;28;20065;-71
2022/08/17 02:19:15;;;;;;;9.02;8.18;;;16.30;99.90;;;;;;4991478;28;20038;-72
2022/08/17 02:21:49;;;;;;;9.27;8.32;;;16.30;99.90;;;;;;5005198;28;20042;-72
2022/08/17 02:24:26;;;;;;;8.55;7.75;;;16.40;99.90;;;;;;5004791;28;20423;-72
2022/08/17 02:26:58;;;;;;;9.38;8.48;;;16.40;99.90;;;;;;5008386;28;20038;-71
2022/08/17 02:29:29;;;;;;;8.73;7.82;;;16.30;99.90;;;;;;4990909;28;20042;-72
2022/08/17 02:32:03;;;;;;;8.07;7.28;;;16.30;99.90;;;;;;4988620;28;20048;-72
2022/08/17 02:34:35;;;;;;;7.53;6.82;;;16.30;99.90;;;;;;4987481;28;20048;-72
2022/08/17 02:37:07;;;;;;;9.18;7.63;;;16.20;99.90;;;;;;5005222;28;20465;-72
2022/08/17 02:39:39;;;;;;;8.43;7.68;;;16.10;99.90;;;;;;5004584;28;20125;-72
2022/08/17 02:42:12;;;;;;;7.90;7.10;;;16.00;99.90;;;;;;4989856;28;20041;-71
2022/08/17 02:44:44;;;;;;;9.50;7.00;;;16.00;99.90;;;;;;5005004;28;20140;-72
2022/08/17 02:47:16;;;;;;;7.80;7.03;;;16.00;99.90;;;;;;5005318;28;20037;-72
2022/08/17 02:49:48;;;;;;;7.07;6.40;;;16.10;99.90;;;;;;5000524;28;20050;-71
2022/08/17 02:52:20;;;;;;;9.13;7.57;;;16.10;99.90;;;;;;5001141;28;20038;-70
2022/08/17 02:54:51;;;;;;;7.20;6.50;;;16.10;99.90;;;;;;5005296;28;20472;-71
2022/08/17 02:57:23;;;;;;;8.75;7.05;;;16.10;99.90;;;;;;5007268;28;20037;-72
2022/08/17 02:59:55;;;;;;;7.75;6.82;;;16.00;99.90;;;;;;4999256;28;20074;-72
2022/08/17 03:02:26;;;;;;;6.85;6.13;;;16.00;99.90;;;;;;4984699;28;20049;-72
2022/08/17 03:04:58;;;;;;;7.70;6.80;;;16.00;99.90;;;;;;4988999;28;20046;-72
2022/08/17 03:07:30;;;;;;;10.48;9.43;;;16.10;99.90;;;;;;4992373;28;20118;-71
2022/08/17 03:10:06;;;;;;;11.50;10.30;;;16.10;99.90;;;;;;5010710;28;20053;-73
2022/08/17 03:12:40;;;;;;;7.00;6.28;;;16.20;99.90;;;;;;4987154;28;20053;-72
2022/08/17 03:15:12;;;;;;;10.82;7.57;;;16.40;99.90;;;;;;5008155;28;20045;-71
2022/08/17 03:17:44;;;;;;;8.20;7.30;;;16.90;99.90;;;;;;5002252;28;20046;-72
2022/08/17 03:20:17;;;;;;;11.10;10.02;;;17.30;99.90;;;;;;4983454;28;20047;-72
2022/08/17 03:22:52;;;;;;;11.70;10.50;;;17.60;99.90;;;;;;5006383;28;20069;-71
2022/08/17 03:25:29;;;;;;;8.82;7.68;;;17.80;99.90;;;;;;4991633;28;20313;-71
2022/08/17 03:27:56;;;;;;;8.90;8.00;;;17.60;99.90;;;;;;5009013;28;20041;-70
2022/08/17 03:30:29;;;;;;;8.43;7.55;;;17.70;99.90;;;;;;4998230;28;20045;-71
2022/08/17 03:33:02;;;;;;;8.63;7.78;;;18.00;99.90;;;;;;5004348;28;20064;-71
2022/08/17 03:35:36;;;;;;;7.90;7.20;;;18.20;99.90;;;;;;5010267;28;20038;-70
2022/08/17 03:38:10;;;;;;;7.65;7.03;;;18.30;99.90;;;;;;4974906;28;20050;-72
2022/08/17 03:40:45;;;;;;;8.27;7.50;;;18.30;99.90;;;;;;5009957;28;20080;-72
2022/08/17 03:43:11;;;;;;;10.30;6.65;;;18.40;99.90;;;;;;5003713;28;20048;-71
2022/08/17 03:57:07;;;;;;;9.57;6.40;;;18.40;99.90;;;;;;5010455;28;20098;-72
2022/08/17 03:59:39;;;;;;;8.23;6.57;;;18.40;99.90;;;;;;4990789;28;20052;-72
2022/08/17 04:02:32;;;;;;;10.30;7.38;;;18.30;99.90;;;;;;4991898;28;20038;-72
2022/08/17 04:05:04;;;;;;;10.60;7.75;;;18.30;99.90;;;;;;5010936;28;20585;-73
2022/08/17 04:07:36;;;;;;;9.50;7.05;;;18.30;99.90;;;;;;4995987;28;20042;-72
2022/08/17 04:10:08;;;;;;;11.80;6.88;;;18.30;99.90;;;;;;5011129;28;20042;-72
2022/08/17 04:12:48;;;;;;;10.57;7.90;;;18.10;99.90;;;;;;4993312;28;20069;-72
2022/08/17 04:15:21;;;;;;;13.73;7.20;;;17.70;99.90;;;;;;4974769;28;20409;-72
2022/08/17 04:17:53;;;;;;;10.63;6.45;;;17.30;99.90;;;;;;4996789;28;20411;-72
2022/08/17 04:20:26;;;;;;;9.88;7.13;;;16.90;99.90;;;;;;5011080;28;20050;-72
2022/08/17 04:23:11;;;;;;;13.23;9.63;;;16.70;99.90;;;;;;4996021;28;20041;-72
2022/08/17 04:25:42;;;;;;;11.95;8.60;;;16.50;99.90;;;;;;5012186;28;20052;-72
2022/08/17 04:28:15;;;;;;;13.60;8.95;;;16.30;99.90;;;;;;5014096;28;20042;-72
2022/08/17 04:30:47;;;;;;;;;;;16.20;99.90;;;;;;4996786;28;20133;-72
2022/08/17 04:33:23;;;;;;;10.45;7.05;;;16.10;99.90;;;;;;4994679;28;19932;-72
2022/08/17 04:35:58;;;;;;;8.27;7.40;;;16.00;99.90;;;;;;4995915;28;20504;-71
2022/08/17 04:38:33;;;;;;;8.93;7.50;;;16.00;99.90;;;;;;4992848;28;20056;-72
2022/08/17 04:43:57;;;;;;;9.50;7.72;;;15.90;99.90;;;;;;5010921;28;20403;-72
2022/08/17 04:46:34;;;;;;;10.98;8.95;;;15.80;99.90;;;;;;5010340;28;20145;-71
2022/08/17 04:49:09;;;;;;;11.27;8.85;;;15.80;99.90;;;;;;5013648;28;20049;-72
2022/08/17 04:51:44;;;;;;;18.08;9.23;;;15.80;99.90;;;;;;5008198;28;20076;-71
2022/08/17 04:54:19;;;;;;;14.55;9.48;;;15.80;99.90;;;;;;5012945;28;20120;-72
2022/08/17 04:56:51;;;;;;;12.05;9.32;;;15.70;99.90;;;;;;5013572;28;20133;-72
2022/08/17 04:59:23;;;;;;;12.88;8.95;;;15.70;99.90;;;;;;4995911;28;20081;-72
2022/08/17 05:01:55;;;;;;;14.38;9.38;;;15.70;99.90;;;;;;5012178;28;20056;-72
2022/08/17 05:04:27;;;;;;;16.75;9.80;;;15.80;99.90;;;;;;5012710;28;20496;-71
2022/08/17 05:06:59;;;;;;;11.10;9.73;;;15.80;99.90;;;;;;5011569;28;20427;-71
2022/08/17 05:09:31;;;;;;;13.13;10.10;;;15.90;99.90;;;;;;5013458;28;20131;-72
2022/08/17 05:12:04;;;;;;;15.43;9.90;;;16.00;99.90;;;;;;5008465;28;20038;-72
2022/08/17 05:14:37;;;;;;;;;;;16.00;99.90;;;;;;4994049;28;20129;-71
2022/08/17 05:17:09;;;;;;;16.60;11.73;;;16.10;99.90;;;;;;5010963;28;19921;-72
2022/08/17 05:19:40;;;;;;;15.48;10.40;;;16.20;99.90;;;;;;5013001;28;20500;-71
2022/08/17 05:22:13;;;;;;;18.63;11.82;;;16.20;99.90;;;;;;5011727;28;20045;-72
2022/08/17 05:24:45;;;;;;;14.97;12.07;;;16.20;99.90;;;;;;5008791;28;20050;-72
2022/08/17 05:27:16;;;;;;;17.83;10.00;;;16.30;99.90;;;;;;5012328;28;20291;-72
2022/08/17 05:29:48;;;;;;;13.85;10.48;;;16.30;99.90;;;;;;5012967;28;20408;-72
2022/08/17 05:32:21;;;;;;;13.10;9.52;;;16.40;99.90;;;;;;5000899;28;20053;-72
2022/08/17 05:34:48;;;;;;;13.20;9.77;;;16.40;99.90;;;;;;4994742;28;20037;-72
2022/08/17 05:37:19;;;;;;;22.65;14.38;;;16.50;99.90;;;;;;5012898;28;20048;-72
2022/08/17 05:39:52;;;;;;;16.80;13.50;;;16.50;99.90;;;;;;5012795;28;20044;-71
2022/08/17 05:42:24;;;;;;;14.35;11.60;;;16.50;99.90;;;;;;5011180;28;20044;-72
2022/08/17 05:44:56;;;;;;;17.23;12.88;;;16.60;99.90;;;;;;4995263;28;20045;-71
2022/08/17 05:47:29;;;;;;;14.90;12.68;;;16.70;99.90;;;;;;4993385;28;20038;-71
2022/08/17 05:50:02;;;;;;;18.80;12.65;;;16.80;99.90;;;;;;5012604;28;20045;-72
2022/08/17 05:52:48;;;;;;;13.38;11.82;;;16.80;99.90;;;;;;5010492;28;20064;-72
2022/08/17 05:55:47;;;;;;;11.48;10.35;;;16.90;99.90;;;;;;4987893;28;20044;-72
2022/08/17 05:58:59;;;;;;;12.55;11.02;;;17.00;99.90;;;;;;4993527;28;20045;-72
2022/08/17 06:01:39;;;;;;;12.75;11.25;;;17.10;99.90;;;;;;4971337;28;20049;-72
2022/08/17 06:04:17;;;;;;;11.88;10.63;;;17.20;99.90;;;;;;5011523;28;20042;-71
2022/08/17 06:07:15;;;;;;;10.80;9.70;;;17.20;99.90;;;;;;4993089;28;20053;-72
2022/08/17 06:10:13;;;;;;;11.77;10.52;;;17.30;99.90;;;;;;4991335;28;20061;-72
2022/08/17 06:12:54;;;;;;;14.30;10.02;;;17.40;99.90;;;;;;5008097;28;20044;-72
2022/08/17 06:15:50;;;;;;;13.10;11.70;;;17.40;99.90;;;;;;5011376;28;20072;-71
2022/08/17 06:18:27;;;;;;;13.27;11.95;;;17.50;99.90;;;;;;4992725;28;20134;-72
2022/08/17 06:21:03;;;;;;;12.38;10.98;;;17.60;99.90;;;;;;5004123;28;20045;-72
2022/08/17 06:23:57;;;;;;;17.58;11.00;;;17.60;99.90;;;;;;5010296;28;20038;-72
2022/08/17 06:26:32;;;;;;;14.68;10.35;;;17.70;99.90;;;;;;5007955;28;20052;-72
2022/08/17 06:29:15;;;;;;;18.40;10.60;;;17.80;99.90;;;;;;4978847;28;20041;-72
2022/08/17 06:31:47;;;;;;;16.33;9.68;;;17.90;99.90;;;;;;5008477;28;20060;-70
2022/08/17 06:34:20;;;;;;;14.95;10.38;;;18.00;99.90;;;;;;4992842;28;20046;-72
2022/08/17 06:36:52;;;;;;;12.73;9.25;;;18.10;99.90;;;;;;5011697;28;20045;-72
2022/08/17 06:39:42;;;;;;;14.30;8.40;;;18.20;99.90;;;;;;4993984;28;20054;-72
2022/08/17 06:42:39;;;;;;;8.70;7.57;;;18.20;99.90;;;;;;5009842;28;20042;-71
2022/08/17 06:45:19;;;;;;;7.25;6.55;;;18.40;99.90;;;;;;5009255;28;20053;-72
2022/08/17 06:48:23;;;;;;;8.27;7.30;;;18.40;99.90;;;;;;4993736;28;20052;-71
2022/08/17 06:50:58;;;;;;;;;;;18.60;99.90;;;;;;5010161;28;20415;-72
2022/08/17 06:53:49;;;;;;;13.20;11.80;;;18.70;99.90;;;;;;5006938;28;19921;-72
2022/08/17 06:56:41;;;;;;;14.43;11.57;;;18.80;99.90;;;;;;4993446;28;20057;-71
2022/08/17 06:59:18;;;;;;;15.10;12.23;;;18.80;99.90;;;;;;4991520;28;20435;-71
2022/08/17 07:01:51;;;;;;;13.82;12.18;;;18.90;99.90;;;;;;4989481;28;20046;-71
2022/08/17 07:04:27;;;;;;;16.05;12.73;;;19.00;99.90;;;;;;4996718;28;20061;-72
2022/08/17 07:10:00;;;;;;;13.52;11.55;;;19.20;99.90;;;;;;5010878;28;20125;-72
2022/08/17 07:12:38;;;;;;;12.38;11.18;;;19.30;99.90;;;;;;5008328;28;20057;-72
2022/08/17 07:15:18;;;;;;;13.18;11.07;;;19.40;99.90;;;;;;5010291;28;20496;-72
2022/08/17 07:17:50;;;;;;;13.23;10.75;;;19.50;99.90;;;;;;5010527;28;20052;-72
2022/08/17 07:20:21;;;;;;;13.57;11.15;;;19.60;99.90;;;;;;5010851;28;20042;-72
2022/08/17 07:23:13;;;;;;;12.23;10.38;;;19.80;99.90;;;;;;5009431;28;20048;-72
2022/08/17 07:25:44;;;;;;;11.45;9.73;;;19.90;99.90;;;;;;5008583;28;20049;-71
2022/08/17 07:28:21;;;;;;;12.15;9.55;;;20.00;99.90;;;;;;5010869;28;20061;-71
2022/08/17 07:30:53;;;;;;;10.85;9.35;;;20.10;99.90;;;;;;5010702;28;20425;-71
2022/08/17 07:33:28;;;;;;;10.48;9.48;;;20.20;99.90;;;;;;4976087;28;20040;-71
2022/08/17 07:36:00;;;;;;;12.48;9.77;;;20.30;99.90;;;;;;5001120;28;20055;-70
2022/08/17 07:38:34;;;;;;;12.05;9.57;;;20.50;99.90;;;;;;4992611;28;20046;-70
2022/08/17 07:41:09;;;;;;;12.73;9.38;;;20.60;99.90;;;;;;5010570;28;20205;-71
2022/08/17 07:43:41;;;;;;;9.50;8.57;;;20.70;99.90;;;;;;5009071;28;20046;-71
2022/08/17 07:49:09;;;;;;;11.50;7.45;;;21.00;99.90;;;;;;5010548;28;20133;-71
2022/08/17 07:51:46;;;;;;;10.98;7.90;;;21.20;99.90;;;;;;5006418;28;20050;-70
2022/08/17 07:54:27;;;;;;;7.32;6.63;;;21.40;99.90;;;;;;4992186;28;20038;-71
2022/08/17 07:57:09;;;;;;;7.70;6.68;;;21.50;99.90;;;;;;5008763;28;20068;-71
2022/08/17 08:00:04;;;;;;;8.98;6.82;;;21.70;99.90;;;;;;5010670;28;20053;-71
2022/08/17 08:02:42;;;;;;;7.88;7.07;;;21.80;99.90;;;;;;5008088;28;20038;-71
2022/08/17 08:05:21;;;;;;;7.97;7.25;;;22.00;99.90;;;;;;5007380;28;20400;-70
2022/08/17 08:07:55;;;;;;;7.70;7.00;;;22.10;99.90;;;;;;5010137;28;20060;-70
2022/08/17 08:10:37;;;;;;;8.20;6.80;;;22.30;99.90;;;;;;5010345;28;20062;-71
2022/08/17 08:13:24;;;;;;;7.83;6.97;;;22.40;99.90;;;;;;4988678;28;20038;-71
2022/08/17 08:16:18;;;;;;;7.80;6.97;;;22.50;99.90;;;;;;5034192;23;20402;-71
2022/08/17 08:18:59;;;;;;;12.45;7.72;;;22.60;99.90;;;;;;5033455;28;20044;-72
2022/08/17 08:21:36;;;;;;;8.90;8.00;;;22.70;99.90;;;;;;5031172;28;20727;-72
2022/08/17 08:24:23;;;;;;;10.68;8.18;;;22.80;99.90;;;;;;5032700;28;20136;-72
2022/08/17 08:27:42;;;;;;;10.07;8.95;;;22.90;99.90;;;;;;5011782;28;20511;-71
2022/08/17 08:30:18;;;;;;;12.95;7.50;;;23.00;99.90;;;;;;5011921;28;20045;-71
2022/08/17 08:33:13;;;;;;;7.47;6.78;;;23.00;99.90;;;;;;5012070;28;20509;-72
2022/08/17 08:36:11;;;;;;;8.65;7.15;;;23.10;99.90;;;;;;5002779;28;20415;-72
2022/08/17 08:38:47;;;;;;;7.53;6.82;;;23.10;99.90;;;;;;4988476;28;20054;-72
2022/08/17 08:41:53;;;;;;;9.38;8.45;;;23.30;99.90;;;;;;4996787;28;20056;-72
2022/08/17 08:44:36;;;;;;;7.25;6.47;;;23.40;99.90;;;;;;4979608;28;20053;-72
2022/08/17 08:47:26;;;;;;;8.40;7.38;;;23.50;99.90;;;;;;5009270;28;20533;-71
2022/08/17 08:50:19;;;;;;;8.07;6.30;;;23.60;99.90;;;;;;5024442;28;20048;-71
2022/08/17 08:53:14;;;;;;;8.35;6.60;;;23.80;99.90;;;;;;5014886;28;20057;-71
2022/08/17 08:56:07;;;;;;;6.70;6.20;;;23.90;99.90;;;;;;5014754;28;20132;-71
2022/08/17 08:59:12;;;;;;;8.15;7.38;;;24.10;99.90;;;;;;5031293;28;20041;-71
2022/08/17 09:01:59;;;;;;;7.40;6.35;;;24.20;99.90;;;;;;5015068;28;20045;-72
2022/08/17 09:04:37;;;;;;;6.53;5.88;;;24.20;99.90;;;;;;4995832;28;20062;-71
2022/08/17 09:07:37;;;;;;;6.88;6.35;;;24.30;99.90;;;;;;5013953;28;20073;-73
2022/08/17 09:10:26;;;;;;;7.35;6.60;;;24.40;99.90;;;;;;4990797;28;20049;-70
2022/08/17 09:13:33;;;;;;;7.20;6.53;;;24.50;99.90;;;;;;4999719;28;20060;-71
2022/08/17 09:16:28;;;;;;;10.35;6.72;;;24.50;99.90;;;;;;5030628;28;20051;-74
2022/08/17 09:19:07;;;;;;;7.78;6.43;;;24.50;99.90;;;;;;5025673;28;20050;-72
2022/08/17 09:21:54;;;;;;;7.63;6.85;;;24.50;99.90;;;;;;5014046;28;20046;-71
2022/08/17 09:24:42;;;;;;;10.05;6.18;;;24.70;99.70;;;;;;5025015;28;20056;-71
2022/08/17 09:27:21;;;;;;;9.00;6.32;;;24.90;99.90;;;;;;4989290;28;20041;-72
2022/08/17 09:29:58;;;;;;;8.32;6.35;;;25.00;99.50;;;;;;5009700;28;20052;-71
2022/08/17 09:32:37;;;;;;;9.43;7.43;;;25.10;99.80;;;;;;5033387;28;20053;-71
2022/08/17 09:35:23;;;;;;;9.15;6.97;;;25.30;99.10;;;;;;5014935;28;20049;-71
2022/08/17 09:38:12;;;;;;;7.20;6.35;;;25.40;99.00;;;;;;5014384;28;20040;-71
2022/08/17 09:41:15;;;;;;;7.78;6.30;;;25.50;98.10;;;;;;5033338;28;20399;-71
2022/08/17 09:44:25;;;;;;;7.13;6.22;;;25.40;97.90;;;;;;5009732;28;20046;-71
2022/08/17 09:47:04;;;;;;;7.93;6.80;;;25.50;98.30;;;;;;4968839;28;20045;-73
2022/08/17 09:49:38;;;;;;;6.90;6.25;;;25.70;97.50;;;;;;5031315;28;20041;-73
2022/08/17 09:52:19;;;;;;;6.78;6.07;;;26.00;97.20;;;;;;5029796;28;20053;-72
2022/08/17 09:54:53;;;;;;;6.57;5.97;;;26.10;96.60;;;;;;5015773;28;20080;-71
2022/08/17 09:57:36;;;;;;;5.95;5.35;;;26.30;96.30;;;;;;5032261;28;20049;-71
2022/08/17 10:00:23;;;;;;;5.90;5.40;;;26.50;95.40;;;;;;4994283;28;20053;-71
2022/08/17 10:03:03;;;;;;;6.22;5.63;;;26.50;95.20;;;;;;5029529;28;20406;-71
2022/08/17 10:06:06;;;;;;;6.18;5.45;;;26.50;94.70;;;;;;5030323;28;20072;-73
2022/08/17 10:08:56;;;;;;;6.03;5.53;;;26.60;94.30;;;;;;4994491;28;20057;-71
2022/08/17 10:15:02;;;;;;;5.93;5.28;;;26.50;94.10;;;;;;5007521;28;20053;-71
2022/08/17 10:17:46;;;;;;;6.93;6.03;;;26.40;94.40;;;;;;5030973;28;20125;-72
2022/08/17 10:20:35;;;;;;;7.30;5.88;;;26.40;94.30;;;;;;4999606;28;20456;-71
2022/08/17 10:26:24;;;;;;;6.05;5.53;;;26.40;93.80;;;;;;5009945;28;20050;-71
2022/08/17 10:29:15;;;;;;;8.55;6.35;;;26.40;93.80;;;;;;5028953;28;20037;-71
2022/08/17 10:31:59;;;;;;;7.32;5.95;;;26.40;93.80;;;;;;5011737;28;20049;-71
2022/08/17 10:35:08;;;;;;;6.70;6.03;;;26.40;94.30;;;;;;4994116;28;20060;-70
2022/08/17 10:37:54;;;;;;;7.30;5.32;;;26.40;93.80;;;;;;5017477;28;20050;-71
2022/08/17 10:40:52;;;;;;;6.50;5.45;;;26.40;93.00;;;;;;5020092;28;20056;-71
2022/08/17 10:43:37;;;;;;;6.18;5.57;;;26.50;93.00;;;;;;5011713;28;20065;-71
2022/08/17 10:46:27;;;;;;;7.25;6.50;;;26.60;93.00;;;;;;4993839;28;20064;-71
2022/08/17 10:49:17;;;;;;;6.85;6.25;;;26.80;92.90;;;;;;5023260;28;20037;-71
2022/08/17 10:51:52;;;;;;;6.05;5.55;;;27.00;93.50;;;;;;4988383;28;20046;-71
2022/08/17 10:54:23;;;;;;;8.48;6.57;;;27.20;93.40;;;;;;4998078;28;20504;-71
2022/08/17 10:56:56;;;;;;;7.38;5.68;;;27.40;93.00;;;;;;5013828;28;20038;-71
2022/08/17 10:59:34;;;;;;;6.88;6.10;;;27.40;92.00;;;;;;5032027;28;20041;-71
2022/08/17 11:02:24;;;;;;;6.00;5.25;;;27.50;92.30;;;;;;5005775;28;20074;-71
2022/08/17 11:04:59;;;;;;;8.02;6.25;;;27.70;92.30;;;;;;5029974;28;20084;-71
2022/08/17 11:07:52;;;;;;;7.07;5.72;;;27.80;92.30;;;;;;5031254;28;20051;-71
2022/08/17 11:10:45;;;;;;;6.75;5.78;;;27.80;91.30;;;;;;5009305;28;20506;-71
2022/08/17 11:13:26;;;;;;;6.28;5.78;;;27.70;91.70;;;;;;5028300;28;20041;-71
2022/08/17 11:16:17;;;;;;;5.63;5.13;;;27.70;91.30;;;;;;5026808;28;20048;-74
2022/08/17 11:18:49;;;;;;;6.18;5.35;;;27.60;91.20;;;;;;5013907;28;20045;-71
2022/08/17 11:21:24;;;;;;;6.10;5.40;;;27.70;91.10;;;;;;5014045;28;20071;-71
2022/08/17 11:24:11;;;;;;;8.05;5.88;;;27.70;91.00;;;;;;5027786;28;20042;-71
2022/08/17 11:27:03;;;;;;;6.63;6.00;;;27.70;91.10;;;;;;5013113;28;20771;-71
2022/08/17 11:29:54;;;;;;;6.80;6.10;;;27.80;91.10;;;;;;5029253;28;20044;-71
2022/08/17 11:32:45;;;;;;;6.00;5.35;;;27.70;90.30;;;;;;5021103;28;20044;-71
2022/08/17 11:35:20;;;;;;;5.88;5.47;;;27.60;90.30;;;;;;5019927;28;20431;-71
2022/08/17 11:37:49;;;;;;;6.10;5.50;;;27.70;90.70;;;;;;5012303;28;20042;-71
2022/08/17 11:40:47;;;;;;;7.25;5.80;;;27.70;90.60;;;;;;5031211;28;20052;-71
2022/08/17 11:43:44;;;;;;;6.53;5.93;;;27.60;90.40;;;;;;4986451;28;20068;-71
2022/08/17 11:51:32;;;;;;;6.05;5.45;;;27.60;90.30;;;;;;5028031;28;20052;-71
2022/08/17 11:52:42;;;;;;;5.88;5.35;;;27.40;90.60;;;;;;5029666;28;20045;-71
2022/08/17 11:55:33;;;;;;;5.90;5.32;;;27.30;90.10;;;;;;5027997;28;20045;-71
2022/08/17 11:58:28;;;;;;;7.28;5.68;;;27.30;90.00;;;;;;5010016;28;20064;-71
2022/08/17 12:01:01;;;;;;;5.68;5.18;;;27.20;90.10;;;;;;4990345;28;20490;-71
2022/08/17 12:03:33;;;;;;;6.13;5.55;;;27.10;90.20;;;;;;5029033;28;20073;-72
2022/08/17 12:06:40;;;;;;;7.20;6.50;;;27.10;90.30;;;;;;5029524;28;20372;-72
2022/08/17 12:09:09;;;;;;;7.60;5.97;;;27.10;90.70;;;;;;5021048;28;20046;-71
2022/08/17 12:11:55;;;;;;;6.30;5.70;;;27.00;90.90;;;;;;5031206;28;20129;-71
2022/08/17 12:14:31;;;;;;;12.52;5.75;;;26.90;91.10;;;;;;5011704;28;20053;-71
2022/08/17 12:17:07;;;;;;;7.43;5.40;;;27.00;91.10;;;;;;5012306;28;20045;-71
2022/08/17 12:19:41;;;;;;;10.18;5.90;;;26.90;91.10;;;;;;5027288;28;20049;-71
2022/08/17 12:22:31;;;;;;;5.82;5.30;;;26.90;91.00;;;;;;4997847;28;20052;-71
2022/08/17 12:25:15;;;;;;;6.40;5.90;;;26.90;91.10;;;;;;5011997;28;20140;-75
2022/08/17 12:27:49;;;;;;;11.25;5.55;;;26.90;90.90;;;;;;5030710;28;20042;-71
2022/08/17 12:30:21;;;;;;;6.07;5.47;;;27.00;91.00;;;;;;5031802;28;20041;-71
2022/08/17 12:32:53;;;;;;;6.25;5.40;;;27.00;91.50;;;;;;5017549;28;20038;-71
2022/08/17 12:35:33;;;;;;;6.70;5.37;;;27.00;91.60;;;;;;5033274;28;20041;-71
2022/08/17 12:38:09;;;;;;;10.05;5.47;;;27.00;91.30;;;;;;5033102;28;20042;-71
2022/08/17 12:40:56;;;;;;;8.13;4.95;;;27.10;90.90;;;;;;5031512;28;20042;-72
2022/08/17 12:43:31;;;;;;;6.82;5.43;;;27.30;91.20;;;;;;5031686;28;20446;-71
2022/08/17 12:46:03;;;;;;;5.60;5.10;;;27.60;90.50;;;;;;5015899;28;20041;-73
2022/08/17 12:48:35;;;;;;;5.70;5.18;;;27.90;90.00;;;;;;5016338;28;20048;-71
2022/08/17 12:51:07;;;;;;;6.05;5.40;;;28.30;89.30;;;;;;5016484;28;20499;-71
2022/08/17 12:53:44;;;;;;;8.13;5.45;;;28.50;87.30;;;;;;4997640;28;20049;-71
2022/08/17 12:56:16;;;;;;;6.03;5.30;;;28.60;85.20;;;;;;5014834;28;20038;-71
2022/08/17 12:58:54;;;;;;;6.38;5.30;;;28.60;85.20;;;;;;5011338;28;20064;-72
2022/08/17 13:01:26;;;;;;;7.70;5.35;;;28.80;85.10;;;;;;5017400;28;20041;-71
2022/08/17 13:03:59;;;;;;;6.05;5.10;;;29.00;83.80;;;;;;5017423;28;20492;-71
2022/08/17 13:06:34;;;;;;;5.53;5.13;;;29.20;82.20;;;;;;5014901;28;20041;-71
2022/08/17 13:09:13;;;;;;;5.72;5.07;;;29.30;81.70;;;;;;4998368;28;20045;-71
2022/08/17 13:11:48;;;;;;;7.40;5.07;;;29.50;81.50;;;;;;5013466;28;20045;-71
2022/08/17 13:14:20;;;;;;;6.72;5.30;;;29.50;81.20;;;;;;5031287;28;20045;-72
2022/08/17 13:16:51;;;;;;;9.63;4.82;;;29.50;80.20;;;;;;5014407;28;20041;-71
2022/08/17 13:19:25;;;;;;;4.82;4.45;;;29.70;80.10;;;;;;5012974;28;20065;-71
2022/08/17 13:21:59;;;;;;;5.88;5.38;;;29.70;78.90;;;;;;5000781;28;20061;-71
2022/08/17 13:24:33;;;;;;;7.60;5.00;;;29.80;78.40;;;;;;5033296;28;20320;-71
2022/08/17 13:27:08;;;;;;;5.57;5.07;;;29.90;78.20;;;;;;5029828;28;20103;-71
2022/08/17 13:29:43;;;;;;;6.90;5.28;;;29.90;77.80;;;;;;5033921;28;20089;-71
2022/08/17 13:32:30;;;;;;;9.10;5.40;;;30.10;78.40;;;;;;5033249;28;20048;-71
2022/08/17 13:35:36;;;;;;;6.22;5.15;;;30.10;76.60;;;;;;5014194;28;20037;-71
2022/08/17 13:38:15;;;;;;;6.25;5.65;;;30.10;77.80;;;;;;5016819;28;20427;-71
2022/08/17 13:40:51;;;;;;;5.93;4.88;;;30.20;78.00;;;;;;5031395;28;20492;-74
2022/08/17 13:43:44;;;;;;;5.40;4.70;;;30.20;76.10;;;;;;5015376;28;20516;-73
2022/08/17 13:46:22;;;;;;;5.33;4.40;;;30.30;76.30;;;;;;5011870;28;20038;-74
2022/08/17 13:49:01;;;;;;;6.32;5.15;;;30.50;74.50;;;;;;4999752;28;20041;-75
2022/08/17 13:51:41;;;;;;;7.25;5.55;;;30.60;74.50;;;;;;5033438;28;20044;-73
2022/08/17 13:54:31;;;;;;;7.50;5.20;;;30.70;73.60;;;;;;5013578;28;20517;-73
2022/08/17 13:57:24;;;;;;;5.65;4.95;;;30.70;73.30;;;;;;5015113;28;20056;-73
2022/08/17 14:00:12;;;;;;;5.67;4.90;;;30.90;73.20;;;;;;4998401;28;20503;-73
2022/08/17 14:02:44;;;;;;;12.68;5.15;;;31.00;71.50;;;;;;5013743;28;20053;-73
2022/08/17 14:05:15;;;;;;;6.70;5.55;;;30.90;72.90;;;;;;5019858;28;20041;-73
2022/08/17 14:07:57;;;;;;;9.70;5.22;;;31.10;73.20;;;;;;5032716;28;20495;-74
2022/08/17 14:10:29;;;;;;;5.60;5.07;;;31.20;70.00;;;;;;5029971;28;20040;-73
2022/08/17 14:13:00;;;;;;;8.35;5.30;;;31.20;69.60;;;;;;5014618;28;20046;-73
2022/08/17 14:15:27;;;;;;;6.13;5.03;;;31.20;70.00;;;;;;5030821;28;20052;-72